Time;durP1;ratioP1;P1;durP2;ratioP2;P2;SDS_P1;SDS_P2;PMS_P1;PMS_P2;Temp;Humidity;BMP_temperature;BMP_pressure;BME280_temperature;BME280_humidity;BME280_pressure;Samples;Min_cycle;Max_cycle;Signal;HPM_P1;HPM_P2
2021/09/08 04:02:05;;;;;;;20.10;18.20;;;15.80;99.90;;;;;;5266772;22;20498;-66
2021/09/08 04:04:32;;;;;;;22.27;20.17;;;15.80;99.90;;;;;;5015799;28;20438;-65
2021/09/08 04:06:59;;;;;;;22.13;20.23;;;15.70;99.90;;;;;;5016568;28;20460;-65
2021/09/08 04:09:26;;;;;;;19.80;17.93;;;15.70;99.90;;;;;;5015979;28;20997;-65
2021/09/08 04:11:53;;;;;;;20.90;18.90;;;15.70;99.90;;;;;;5016465;28;20473;-65
2021/09/08 04:14:20;;;;;;;20.93;18.93;;;15.70;99.90;;;;;;5015731;28;20799;-65
2021/09/08 04:16:46;;;;;;;19.93;18.03;;;15.70;99.90;;;;;;5016040;28;20457;-65
2021/09/08 04:19:14;;;;;;;20.37;18.30;;;15.70;99.90;;;;;;5016005;28;20449;-65
2021/09/08 04:21:41;;;;;;;20.37;18.67;;;15.70;99.90;;;;;;5015661;28;20472;-65
2021/09/08 04:24:08;;;;;;;21.37;19.27;;;15.70;99.90;;;;;;5015591;28;20452;-65
2021/09/08 04:26:34;;;;;;;20.90;19.10;;;15.70;99.90;;;;;;5015555;28;20453;-65
2021/09/08 04:29:01;;;;;;;20.63;18.43;;;15.70;99.90;;;;;;5014617;28;20476;-65
2021/09/08 04:31:28;;;;;;;19.40;17.50;;;15.70;99.90;;;;;;5015145;28;20473;-65
2021/09/08 04:33:54;;;;;;;17.67;16.03;;;15.70;99.90;;;;;;5015308;28;20499;-65
2021/09/08 04:36:22;;;;;;;19.50;17.90;;;15.70;99.90;;;;;;5015949;28;20452;-65
2021/09/08 04:38:49;;;;;;;21.20;19.23;;;15.70;99.90;;;;;;5016223;28;20456;-65
2021/09/08 04:41:16;;;;;;;19.47;17.77;;;15.70;99.90;;;;;;5015805;28;20479;-65
2021/09/08 04:43:43;;;;;;;19.83;17.90;;;15.70;99.90;;;;;;5016564;28;20480;-65
2021/09/08 04:46:09;;;;;;;20.70;18.77;;;15.80;99.90;;;;;;5016352;28;20464;-65
2021/09/08 04:48:36;;;;;;;19.20;17.60;;;15.70;99.90;;;;;;5016317;28;20477;-65
2021/09/08 04:51:03;;;;;;;18.80;17.10;;;15.80;99.90;;;;;;5015382;28;20499;-65
2021/09/08 04:53:31;;;;;;;19.13;17.43;;;15.80;99.90;;;;;;5014979;28;20456;-65
2021/09/08 04:55:58;;;;;;;20.93;19.13;;;15.80;99.90;;;;;;5015644;28;20437;-65
2021/09/08 04:58:25;;;;;;;20.50;18.47;;;15.80;99.90;;;;;;5014970;28;20445;-65
2021/09/08 05:00:52;;;;;;;19.43;17.73;;;15.80;99.90;;;;;;5014793;28;20492;-65
2021/09/08 05:03:18;;;;;;;20.40;18.53;;;15.80;99.90;;;;;;5014946;28;20488;-65
2021/09/08 05:05:46;;;;;;;20.00;18.27;;;15.80;99.90;;;;;;5014534;28;20452;-65
2021/09/08 05:08:12;;;;;;;19.60;17.80;;;15.80;99.90;;;;;;5014367;28;20484;-65
2021/09/08 05:10:40;;;;;;;19.73;17.93;;;15.80;99.90;;;;;;5014621;28;20472;-65
2021/09/08 05:13:07;;;;;;;19.50;17.67;;;15.90;99.90;;;;;;5014346;28;20456;-65
2021/09/08 05:15:34;;;;;;;18.93;17.23;;;15.90;99.90;;;;;;5015585;28;20457;-65
2021/09/08 05:18:01;;;;;;;18.60;16.97;;;15.90;99.90;;;;;;5014429;28;20448;-65
2021/09/08 05:20:28;;;;;;;18.30;16.47;;;15.90;99.90;;;;;;5014582;28;20460;-65
2021/09/08 05:22:55;;;;;;;15.63;14.13;;;16.00;99.90;;;;;;5014890;28;20453;-65
2021/09/08 05:25:22;;;;;;;17.90;16.27;;;16.00;99.90;;;;;;5014450;28;20456;-65
2021/09/08 05:27:51;;;;;;;18.77;16.90;;;16.10;99.90;;;;;;5014374;28;20473;-65
2021/09/08 05:30:17;;;;;;;20.97;18.70;;;16.30;99.90;;;;;;5014526;28;20437;-63
2021/09/08 05:32:44;;;;;;;20.43;18.43;;;16.40;99.90;;;;;;5014663;28;20510;-63
2021/09/08 05:35:12;;;;;;;18.90;17.20;;;16.40;99.90;;;;;;5014562;28;20464;-63
2021/09/08 05:37:39;;;;;;;18.63;16.93;;;16.50;99.90;;;;;;5014897;28;20932;-66
2021/09/08 05:40:07;;;;;;;18.00;16.40;;;16.50;99.90;;;;;;5016539;28;20453;-66
2021/09/08 05:42:34;;;;;;;18.53;16.90;;;16.50;99.90;;;;;;5019877;28;20479;-66
2021/09/08 05:45:03;;;;;;;20.10;18.40;;;16.50;99.90;;;;;;5020020;28;20457;-66
2021/09/08 05:47:30;;;;;;;18.13;16.40;;;16.60;99.90;;;;;;5020027;28;20456;-66
2021/09/08 05:49:57;;;;;;;18.83;17.10;;;16.80;99.90;;;;;;5019935;28;20485;-66
2021/09/08 05:52:23;;;;;;;18.70;16.90;;;17.00;99.90;;;;;;5019309;28;20816;-66
2021/09/08 05:54:50;;;;;;;19.53;17.53;;;17.10;99.90;;;;;;5018422;28;20460;-66
2021/09/08 05:57:17;;;;;;;17.03;15.53;;;17.30;99.90;;;;;;5018873;28;20456;-66
2021/09/08 05:59:43;;;;;;;17.40;15.80;;;17.50;99.90;;;;;;5018277;28;20452;-66
2021/09/08 06:02:11;;;;;;;17.17;15.63;;;18.00;99.90;;;;;;5018294;28;21010;-66
2021/09/08 06:04:38;;;;;;;17.43;15.93;;;18.40;99.90;;;;;;5018724;28;20457;-66
2021/09/08 06:07:05;;;;;;;15.83;14.33;;;19.00;99.90;;;;;;5019310;28;20460;-66
2021/09/08 06:09:31;;;;;;;16.43;15.07;;;19.60;99.90;;;;;;5019235;28;20834;-66
2021/09/08 06:11:58;;;;;;;16.57;15.07;;;20.20;99.90;;;;;;5019718;28;20472;-66
2021/09/08 06:14:25;;;;;;;17.13;15.70;;;20.70;99.90;;;;;;5023270;28;20452;-65
2021/09/08 06:16:52;;;;;;;16.70;15.00;;;21.10;99.90;;;;;;5025100;28;20857;-66
2021/09/08 06:19:20;;;;;;;15.60;14.00;;;21.70;99.90;;;;;;5024170;28;20448;-66
2021/09/08 06:21:47;;;;;;;16.33;14.83;;;22.20;99.90;;;;;;5018810;28;20477;-65
2021/09/08 06:24:14;;;;;;;15.83;14.57;;;22.30;99.90;;;;;;5018667;28;20456;-65
2021/09/08 06:26:41;;;;;;;16.20;14.80;;;22.40;99.90;;;;;;5018962;28;20479;-65
2021/09/08 06:29:08;;;;;;;16.10;14.57;;;22.60;99.90;;;;;;5018445;28;21010;-66
2021/09/08 06:31:34;;;;;;;16.30;14.60;;;23.10;99.90;;;;;;5019611;28;20479;-65
2021/09/08 06:34:01;;;;;;;16.30;15.00;;;23.20;99.90;;;;;;5019246;28;20460;-65
2021/09/08 06:36:29;;;;;;;15.07;13.67;;;23.70;99.90;;;;;;5021032;28;20439;-65
2021/09/08 06:38:56;;;;;;;15.63;14.07;;;24.20;99.90;;;;;;5017748;28;20954;-65
2021/09/08 06:41:23;;;;;;;16.13;14.70;;;24.70;99.90;;;;;;5017940;28;20484;-65
2021/09/08 06:43:49;;;;;;;15.30;13.70;;;25.10;99.90;;;;;;5018382;28;20818;-66
2021/09/08 06:46:16;;;;;;;16.47;15.07;;;25.30;99.90;;;;;;5017440;28;20452;-66
2021/09/08 06:48:43;;;;;;;14.47;13.17;;;25.40;99.90;;;;;;5017898;28;20480;-66
2021/09/08 06:51:10;;;;;;;15.40;14.10;;;25.30;99.90;;;;;;5016992;28;20473;-65
2021/09/08 06:53:38;;;;;;;14.80;13.37;;;25.60;99.90;;;;;;5016542;28;20453;-66
2021/09/08 06:56:05;;;;;;;15.93;14.63;;;25.60;99.90;;;;;;5017037;28;20449;-66
2021/09/08 06:58:32;;;;;;;14.37;13.27;;;26.10;99.20;;;;;;5016679;28;20456;-66
2021/09/08 07:00:58;;;;;;;15.07;13.67;;;26.50;98.00;;;;;;5016535;28;20492;-66
2021/09/08 07:03:25;;;;;;;14.13;12.90;;;26.90;96.80;;;;;;5016771;28;20453;-66
2021/09/08 07:05:52;;;;;;;14.70;13.50;;;27.30;95.50;;;;;;5016508;28;20464;-66
2021/09/08 07:08:18;;;;;;;14.60;13.30;;;27.80;94.70;;;;;;5016817;28;20488;-66
2021/09/08 07:10:48;;;;;;;16.63;13.77;;;28.30;92.70;;;;;;5016540;28;20473;-65
2021/09/08 07:13:15;;;;;;;14.83;13.70;;;28.40;92.00;;;;;;5016526;28;20519;-66
2021/09/08 07:15:42;;;;;;;13.10;12.00;;;28.20;91.80;;;;;;5016671;28;20528;-66
2021/09/08 07:18:08;;;;;;;13.57;12.53;;;28.00;92.40;;;;;;5016580;28;20499;-66
2021/09/08 07:20:35;;;;;;;14.30;12.90;;;27.30;91.00;;;;;;5016358;28;20568;-65
2021/09/08 07:23:03;;;;;;;16.53;12.50;;;27.10;91.20;;;;;;5016430;28;20461;-66
2021/09/08 07:25:30;;;;;;;14.50;13.40;;;27.00;91.70;;;;;;5015967;28;20464;-64
2021/09/08 07:27:58;;;;;;;15.03;13.83;;;27.30;91.20;;;;;;5016011;28;21006;-63
2021/09/08 07:30:25;;;;;;;13.47;12.47;;;27.90;90.20;;;;;;5016076;28;20564;-63
2021/09/08 07:32:52;;;;;;;13.60;12.20;;;28.10;90.60;;;;;;5015947;28;20452;-62
2021/09/08 07:35:19;;;;;;;13.10;12.03;;;27.90;90.50;;;;;;5016121;28;20459;-63
2021/09/08 07:37:46;;;;;;;13.57;12.37;;;28.30;89.50;;;;;;5016303;28;20544;-62
2021/09/08 07:40:12;;;;;;;14.70;13.50;;;28.70;88.50;;;;;;5016277;28;20463;-62
2021/09/08 07:42:39;;;;;;;13.50;12.40;;;28.90;88.40;;;;;;5016391;28;20453;-65
2021/09/08 07:45:09;;;;;;;14.03;12.83;;;29.70;87.50;;;;;;5016070;28;20456;-65
2021/09/08 07:47:35;;;;;;;14.43;13.30;;;29.80;86.30;;;;;;5016135;28;20453;-65
2021/09/08 07:50:02;;;;;;;12.23;11.43;;;29.90;84.40;;;;;;5016197;28;20480;-64
2021/09/08 07:52:29;;;;;;;12.20;11.30;;;30.30;84.10;;;;;;5015900;28;20987;-65
2021/09/08 07:54:55;;;;;;;11.93;11.03;;;31.10;77.00;;;;;;5016239;28;20441;-65
2021/09/08 07:57:22;;;;;;;12.43;11.53;;;31.60;76.10;;;;;;5016155;28;20452;-65
2021/09/08 07:59:49;;;;;;;11.97;10.93;;;31.80;75.80;;;;;;5015974;28;20944;-66
2021/09/08 08:02:17;;;;;;;12.37;11.37;;;31.50;78.00;;;;;;5015686;28;20515;-66
2021/09/08 08:04:44;;;;;;;13.07;11.60;;;31.70;71.20;;;;;;5014951;28;20457;-66
2021/09/08 08:07:11;;;;;;;12.10;11.10;;;31.90;69.20;;;;;;5015828;28;20453;-66
2021/09/08 08:09:41;;;;;;;12.40;11.50;;;32.60;69.30;;;;;;5015713;28;20465;-66
2021/09/08 08:12:08;;;;;;;14.27;13.07;;;31.90;69.30;;;;;;5016465;28;20477;-66
2021/09/08 08:14:35;;;;;;;13.93;12.70;;;31.60;72.40;;;;;;5016359;28;20453;-66
2021/09/08 08:17:02;;;;;;;13.47;12.27;;;31.80;69.60;;;;;;5015815;28;20460;-66
2021/09/08 08:19:30;;;;;;;11.93;10.93;;;32.40;67.10;;;;;;5015735;28;20800;-66
2021/09/08 08:21:57;;;;;;;13.00;11.90;;;33.10;65.70;;;;;;5016002;28;20477;-65
2021/09/08 08:24:23;;;;;;;12.60;11.70;;;33.30;66.70;;;;;;5015550;28;20460;-65
2021/09/08 08:26:50;;;;;;;13.87;12.57;;;33.10;66.20;;;;;;5015885;28;20462;-66
2021/09/08 08:29:17;;;;;;;13.33;12.30;;;33.90;62.80;;;;;;5015740;28;20520;-66
2021/09/08 08:31:44;;;;;;;11.00;10.30;;;33.60;61.60;;;;;;5015300;28;20482;-66
2021/09/08 08:34:11;;;;;;;12.53;11.50;;;34.40;59.80;;;;;;5015429;28;20456;-66
2021/09/08 08:36:40;;;;;;;12.80;11.80;;;34.40;58.80;;;;;;5015646;28;20456;-66
2021/09/08 08:39:06;;;;;;;12.10;11.20;;;34.40;59.10;;;;;;5015520;28;20451;-67
2021/09/08 08:41:33;;;;;;;12.27;11.17;;;34.30;61.20;;;;;;5015458;28;20501;-66
2021/09/08 08:44:00;;;;;;;10.73;9.90;;;34.10;59.50;;;;;;5015766;28;20562;-66
2021/09/08 08:46:27;;;;;;;13.40;12.20;;;34.30;56.70;;;;;;5014844;28;20797;-65
2021/09/08 08:48:54;;;;;;;13.03;11.93;;;34.30;58.80;;;;;;5014941;28;20484;-65
2021/09/08 08:51:20;;;;;;;13.20;12.17;;;34.60;58.10;;;;;;4997878;28;20535;-66
2021/09/08 08:53:49;;;;;;;12.63;11.63;;;34.70;57.70;;;;;;5014837;28;20465;-67
2021/09/08 08:56:16;;;;;;;11.63;10.77;;;35.00;59.90;;;;;;5015202;28;20458;-67
2021/09/08 08:58:43;;;;;;;14.47;10.47;;;35.10;57.40;;;;;;5016142;28;20467;-67
2021/09/08 09:01:20;;;;;;;11.17;10.37;;;35.50;56.60;;;;;;5024686;28;20484;-67
2021/09/08 09:04:04;;;;;;;12.10;11.20;;;35.10;57.20;;;;;;5015066;28;20477;-65
2021/09/08 09:06:33;;;;;;;12.33;11.37;;;35.20;57.00;;;;;;5014660;28;20446;-66
2021/09/08 09:09:04;;;;;;;10.67;9.67;;;35.10;55.80;;;;;;5014510;28;20482;-66
2021/09/08 09:11:32;;;;;;;10.20;9.50;;;35.50;54.50;;;;;;5014710;28;20483;-66
2021/09/08 09:13:59;;;;;;;9.90;9.30;;;35.50;54.70;;;;;;5014634;28;20457;-66
2021/09/08 09:16:27;;;;;;;9.67;8.97;;;35.70;53.80;;;;;;5014141;28;20466;-67
2021/09/08 09:18:54;;;;;;;11.10;10.20;;;35.90;53.70;;;;;;5014486;28;20465;-67
2021/09/08 09:21:23;;;;;;;10.57;9.73;;;36.20;55.60;;;;;;5014056;28;20543;-66
2021/09/08 09:23:51;;;;;;;10.47;9.60;;;36.20;54.30;;;;;;5014250;28;20468;-67
2021/09/08 09:26:25;;;;;;;10.93;9.97;;;36.80;54.90;;;;;;5015170;28;20451;-67
2021/09/08 09:28:53;;;;;;;9.67;8.97;;;36.90;52.60;;;;;;5014222;28;20464;-66
2021/09/08 09:31:22;;;;;;;9.33;8.73;;;37.00;51.70;;;;;;5013965;28;20982;-67
2021/09/08 09:33:54;;;;;;;10.23;9.53;;;36.50;51.30;;;;;;5014175;28;20460;-67
2021/09/08 09:36:22;;;;;;;8.87;8.17;;;36.90;53.10;;;;;;5014236;28;20436;-67
2021/09/08 09:38:51;;;;;;;8.70;8.20;;;37.40;50.80;;;;;;5013843;28;20826;-66
2021/09/08 09:41:22;;;;;;;8.90;8.10;;;37.30;48.90;;;;;;5014289;28;20480;-67
2021/09/08 09:43:51;;;;;;;9.30;8.40;;;36.80;49.50;;;;;;5014781;28;20800;-66
2021/09/08 09:46:18;;;;;;;7.57;7.07;;;36.80;50.50;;;;;;5014026;28;20999;-66
2021/09/08 09:48:44;;;;;;;9.27;8.57;;;36.90;50.70;;;;;;5014086;28;20460;-67
2021/09/08 09:51:13;;;;;;;8.40;7.70;;;37.10;48.70;;;;;;5013484;28;21018;-66
2021/09/08 09:53:40;;;;;;;8.07;7.57;;;37.10;50.80;;;;;;5014496;28;20539;-67
2021/09/08 09:56:07;;;;;;;9.27;8.50;;;37.20;48.50;;;;;;5014639;28;20467;-67
2021/09/08 09:58:36;;;;;;;8.80;8.10;;;37.10;50.60;;;;;;5014858;28;20486;-67
2021/09/08 10:01:05;;;;;;;8.87;8.07;;;37.30;49.10;;;;;;5014043;28;21049;-66
2021/09/08 10:03:32;;;;;;;9.20;8.60;;;37.50;48.30;;;;;;5014938;28;20487;-67
2021/09/08 10:06:00;;;;;;;8.90;8.30;;;36.90;47.50;;;;;;5014777;28;20452;-66
2021/09/08 10:08:29;;;;;;;8.83;8.13;;;36.50;48.30;;;;;;5014593;28;20459;-66
2021/09/08 10:10:59;;;;;;;8.00;7.50;;;36.00;49.10;;;;;;5014331;28;20513;-66
2021/09/08 10:13:29;;;;;;;9.03;8.40;;;35.90;49.40;;;;;;5013942;28;20499;-67
2021/09/08 10:15:56;;;;;;;8.60;8.00;;;36.00;48.50;;;;;;5014267;28;20457;-67
2021/09/08 10:18:26;;;;;;;8.90;8.30;;;35.80;49.80;;;;;;5013873;28;20460;-66
2021/09/08 10:20:54;;;;;;;8.43;7.83;;;35.80;51.00;;;;;;5013955;28;21002;-67
2021/09/08 10:23:21;;;;;;;9.43;8.57;;;35.90;48.70;;;;;;5014188;28;20486;-66
2021/09/08 10:25:50;;;;;;;8.83;8.20;;;36.20;49.30;;;;;;5014225;28;20514;-66
2021/09/08 10:28:20;;;;;;;8.60;7.80;;;36.50;49.40;;;;;;5017320;28;20463;-65
2021/09/08 10:30:48;;;;;;;8.30;7.80;;;36.40;48.00;;;;;;5018192;28;21013;-65
2021/09/08 10:33:16;;;;;;;8.40;7.80;;;36.40;49.60;;;;;;5018564;28;20457;-67
2021/09/08 10:35:44;;;;;;;8.33;7.50;;;36.20;48.50;;;;;;5018345;28;20464;-66
2021/09/08 10:38:13;;;;;;;8.67;7.87;;;36.10;50.10;;;;;;5018359;28;20459;-65
2021/09/08 10:40:42;;;;;;;8.77;8.13;;;36.30;51.20;;;;;;5017958;28;20479;-67
2021/09/08 10:43:09;;;;;;;8.10;7.50;;;36.50;49.80;;;;;;5017473;28;20521;-66
2021/09/08 10:45:36;;;;;;;8.93;8.10;;;36.80;51.20;;;;;;5018017;28;20529;-66
2021/09/08 10:48:04;;;;;;;8.97;8.37;;;37.00;49.90;;;;;;5017623;28;20459;-66
2021/09/08 10:50:44;;;;;;;8.10;7.60;;;37.10;48.90;;;;;;5017101;28;20475;-65
2021/09/08 10:53:37;;;;;;;7.40;6.90;;;37.50;48.00;;;;;;5017423;28;20452;-66
2021/09/08 10:56:06;;;;;;;8.50;8.00;;;36.80;48.30;;;;;;5016642;28;20919;-66
2021/09/08 10:58:56;;;;;;;9.13;8.20;;;36.60;47.50;;;;;;5017017;28;20830;-66
2021/09/08 11:01:23;;;;;;;8.47;7.97;;;36.50;48.30;;;;;;5016910;28;20556;-65
2021/09/08 11:03:51;;;;;;;8.23;7.63;;;36.50;49.80;;;;;;5017316;28;20484;-66
2021/09/08 11:06:32;;;;;;;8.23;7.53;;;36.30;48.50;;;;;;5016928;28;20821;-66
2021/09/08 11:09:02;;;;;;;8.03;7.43;;;35.50;47.70;;;;;;5017274;28;20472;-67
2021/09/08 11:11:29;;;;;;;7.93;7.33;;;34.80;50.20;;;;;;5016879;28;20517;-67
2021/09/08 11:13:55;;;;;;;8.73;8.10;;;34.60;50.00;;;;;;5016774;28;20453;-66
2021/09/08 11:16:24;;;;;;;8.70;7.80;;;34.50;50.50;;;;;;5016678;28;20466;-66
2021/09/08 11:18:52;;;;;;;8.40;7.67;;;34.20;50.70;;;;;;5016675;28;20463;-66
2021/09/08 11:21:23;;;;;;;8.00;7.40;;;33.80;50.50;;;;;;5016156;28;20471;-66
2021/09/08 11:23:57;;;;;;;7.60;7.00;;;33.80;53.00;;;;;;5016490;28;20528;-66
2021/09/08 11:26:27;;;;;;;7.60;7.00;;;33.10;51.50;;;;;;5016547;28;20438;-66
2021/09/08 11:29:00;;;;;;;8.60;7.83;;;33.10;55.80;;;;;;5016502;28;20457;-66
2021/09/08 11:31:33;;;;;;;8.47;7.77;;;32.90;53.00;;;;;;5017037;28;20507;-66
2021/09/08 11:34:00;;;;;;;7.70;7.10;;;32.80;53.00;;;;;;5016715;28;20876;-66
2021/09/08 11:36:29;;;;;;;7.73;7.23;;;32.70;53.40;;;;;;5016755;28;20454;-65
2021/09/08 11:38:58;;;;;;;11.20;7.43;;;32.60;54.20;;;;;;5016275;28;20465;-66
2021/09/08 11:41:27;;;;;;;7.80;7.27;;;32.40;52.70;;;;;;5016488;28;20469;-66
2021/09/08 11:43:58;;;;;;;8.63;7.93;;;32.10;53.80;;;;;;5016583;28;20481;-66
2021/09/08 11:46:26;;;;;;;7.77;7.03;;;31.90;53.30;;;;;;5015996;28;20950;-66
2021/09/08 11:48:54;;;;;;;8.50;7.90;;;31.90;54.30;;;;;;5016414;28;20494;-67
2021/09/08 11:51:22;;;;;;;7.53;7.03;;;31.70;53.30;;;;;;5015621;28;20999;-66
2021/09/08 11:53:51;;;;;;;7.70;7.20;;;31.80;53.60;;;;;;5015687;28;20943;-66
2021/09/08 11:56:20;;;;;;;8.07;7.37;;;31.40;53.70;;;;;;5016015;28;20460;-66
2021/09/08 11:58:53;;;;;;;7.87;7.27;;;31.30;55.80;;;;;;5016211;28;20455;-66
2021/09/08 12:01:20;;;;;;;9.90;7.10;;;31.30;55.40;;;;;;5015468;28;20511;-66
2021/09/08 12:03:51;;;;;;;7.97;7.37;;;31.40;55.20;;;;;;5015495;28;20548;-66
2021/09/08 12:06:20;;;;;;;6.60;6.20;;;31.40;55.20;;;;;;5015073;28;20931;-66
2021/09/08 12:08:51;;;;;;;7.10;6.60;;;31.50;53.00;;;;;;5015457;28;20849;-66
2021/09/08 12:11:31;;;;;;;8.67;8.07;;;31.30;54.10;;;;;;5015791;28;20503;-65
2021/09/08 12:13:58;;;;;;;7.30;6.60;;;31.40;57.70;;;;;;5015464;28;20468;-66
2021/09/08 12:16:36;;;;;;;6.70;6.30;;;31.40;55.80;;;;;;5016130;28;20460;-66
2021/09/08 12:19:11;;;;;;;7.90;7.37;;;31.70;55.10;;;;;;5016090;28;20920;-66
2021/09/08 12:21:37;;;;;;;7.70;7.20;;;31.70;54.80;;;;;;5016285;28;20500;-65
2021/09/08 12:24:22;;;;;;;7.30;6.80;;;31.60;54.70;;;;;;5015784;28;20453;-66
2021/09/08 12:26:49;;;;;;;7.50;6.90;;;31.60;54.50;;;;;;5016063;28;20441;-66
2021/09/08 12:29:16;;;;;;;7.77;7.27;;;31.70;55.50;;;;;;5016490;28;20457;-65
2021/09/08 12:31:52;;;;;;;7.17;6.70;;;31.50;57.40;;;;;;5014938;28;20491;-66
2021/09/08 12:34:20;;;;;;;6.93;6.50;;;31.60;55.30;;;;;;5016589;28;20476;-65
2021/09/08 12:36:48;;;;;;;8.33;7.63;;;31.80;55.40;;;;;;5015387;28;20459;-66
2021/09/08 12:39:17;;;;;;;7.90;7.20;;;31.60;55.50;;;;;;5015342;28;20484;-65
2021/09/08 12:42:06;;;;;;;7.00;6.40;;;31.10;57.10;;;;;;5015501;28;20473;-65
2021/09/08 12:44:35;;;;;;;7.80;7.17;;;31.20;57.00;;;;;;5009192;28;20968;-66
2021/09/08 12:47:12;;;;;;;7.80;7.13;;;31.30;54.00;;;;;;5015142;28;20453;-67
2021/09/08 12:49:40;;;;;;;6.97;6.40;;;31.70;54.60;;;;;;5014889;28;20497;-67
2021/09/08 12:52:09;;;;;;;9.30;7.30;;;31.90;56.10;;;;;;5014498;28;20497;-67
2021/09/08 12:54:37;;;;;;;10.57;6.77;;;31.90;57.20;;;;;;5014756;28;20940;-66
2021/09/08 12:57:05;;;;;;;7.40;6.90;;;32.10;58.30;;;;;;5014777;28;20970;-66
2021/09/08 12:59:34;;;;;;;8.93;6.60;;;32.10;55.80;;;;;;5015114;28;20480;-67
2021/09/08 13:02:03;;;;;;;6.80;6.30;;;32.00;56.10;;;;;;5014379;28;20485;-67
2021/09/08 13:04:31;;;;;;;8.00;7.30;;;31.80;52.70;;;;;;5015009;28;20517;-66
2021/09/08 13:06:58;;;;;;;7.40;6.90;;;31.60;54.40;;;;;;5015123;28;20457;-66
2021/09/08 13:09:25;;;;;;;7.40;6.80;;;31.60;57.10;;;;;;5015050;28;20813;-67
2021/09/08 13:11:52;;;;;;;7.03;6.60;;;31.90;56.30;;;;;;5014708;28;20507;-68
2021/09/08 13:14:19;;;;;;;7.00;6.37;;;32.10;56.60;;;;;;5014681;28;20456;-67
2021/09/08 13:16:47;;;;;;;6.30;5.87;;;32.10;54.60;;;;;;5014737;28;20457;-66
2021/09/08 13:19:14;;;;;;;6.73;6.13;;;31.80;52.90;;;;;;5014615;28;20544;-65
2021/09/08 13:21:42;;;;;;;6.10;5.70;;;31.70;54.30;;;;;;5014274;28;20476;-66
2021/09/08 13:24:11;;;;;;;6.57;6.17;;;31.80;54.60;;;;;;5014727;28;20463;-66
2021/09/08 13:26:39;;;;;;;7.47;6.87;;;31.80;52.80;;;;;;5014400;28;20480;-66
2021/09/08 13:29:08;;;;;;;6.33;5.83;;;31.70;52.90;;;;;;5014276;28;20958;-65
2021/09/08 13:31:35;;;;;;;6.80;6.07;;;31.70;52.60;;;;;;5014172;28;20480;-65
2021/09/08 13:34:04;;;;;;;6.10;5.70;;;31.80;54.80;;;;;;5014277;28;20453;-65
2021/09/08 13:36:32;;;;;;;6.33;5.83;;;31.70;53.00;;;;;;5014254;28;20456;-65
2021/09/08 13:39:02;;;;;;;7.17;6.67;;;31.70;53.70;;;;;;5014312;28;20512;-65
2021/09/08 13:41:29;;;;;;;7.37;6.67;;;31.50;53.70;;;;;;5014375;28;20507;-65
2021/09/08 13:43:56;;;;;;;6.80;6.40;;;31.60;54.40;;;;;;5014019;28;20457;-65
2021/09/08 13:46:23;;;;;;;6.83;6.37;;;31.60;51.80;;;;;;5014722;28;20456;-65
2021/09/08 13:48:50;;;;;;;6.23;5.83;;;31.70;54.60;;;;;;5015032;28;20448;-65
2021/09/08 13:51:19;;;;;;;7.00;6.40;;;31.90;58.40;;;;;;5014085;28;20487;-65
2021/09/08 13:53:46;;;;;;;6.20;5.80;;;31.70;55.00;;;;;;5014244;28;20456;-65
2021/09/08 13:56:14;;;;;;;5.53;5.00;;;31.50;51.70;;;;;;5014690;28;20456;-66
2021/09/08 13:58:40;;;;;;;5.73;5.30;;;31.60;52.60;;;;;;5014319;28;20484;-66
2021/09/08 14:01:07;;;;;;;5.63;5.23;;;31.70;52.30;;;;;;5014212;28;20484;-67
2021/09/08 14:03:34;;;;;;;5.33;5.03;;;31.50;52.80;;;;;;5017976;28;20480;-67
2021/09/08 14:06:00;;;;;;;4.93;4.63;;;31.60;51.50;;;;;;5018018;28;20456;-66
2021/09/08 14:08:29;;;;;;;5.30;4.80;;;31.60;49.80;;;;;;5017816;28;20452;-66
2021/09/08 14:10:56;;;;;;;5.87;5.47;;;31.70;52.60;;;;;;5017584;28;20481;-67
2021/09/08 14:13:22;;;;;;;5.37;4.87;;;31.70;54.20;;;;;;5017782;28;20457;-66
2021/09/08 14:15:49;;;;;;;5.27;4.87;;;31.70;51.80;;;;;;5017526;28;20448;-66
2021/09/08 14:18:16;;;;;;;5.50;5.20;;;31.70;51.30;;;;;;5017686;28;20886;-66
2021/09/08 14:20:43;;;;;;;6.40;6.00;;;31.90;51.80;;;;;;5017534;28;20831;-66
2021/09/08 14:23:10;;;;;;;6.27;5.73;;;31.90;53.20;;;;;;5017481;28;20460;-66
2021/09/08 14:25:39;;;;;;;5.87;5.47;;;31.90;51.90;;;;;;5017061;28;20457;-66
2021/09/08 14:28:05;;;;;;;5.33;4.90;;;31.80;51.90;;;;;;5017169;28;20461;-66
2021/09/08 14:30:32;;;;;;;5.57;5.07;;;31.70;50.80;;;;;;5017248;28;20452;-66
2021/09/08 14:32:59;;;;;;;5.30;4.90;;;31.60;53.50;;;;;;5017245;28;20807;-66
2021/09/08 14:35:26;;;;;;;7.17;4.60;;;31.70;55.00;;;;;;5017219;28;20548;-67
2021/09/08 14:37:53;;;;;;;6.30;4.87;;;31.70;50.70;;;;;;5017938;28;20452;-67
2021/09/08 14:40:20;;;;;;;5.03;4.73;;;31.60;49.70;;;;;;5017955;28;20460;-65
2021/09/08 14:42:48;;;;;;;6.03;5.30;;;31.40;50.80;;;;;;5017649;28;20448;-66
2021/09/08 14:45:16;;;;;;;5.00;4.70;;;31.30;50.20;;;;;;5017292;28;20457;-67
2021/09/08 14:47:43;;;;;;;6.20;4.57;;;31.20;49.80;;;;;;5017674;28;20495;-65
2021/09/08 14:50:11;;;;;;;5.23;4.73;;;31.00;50.50;;;;;;5018193;28;20439;-65
2021/09/08 14:52:37;;;;;;;5.60;5.03;;;30.70;50.00;;;;;;5017653;28;20489;-64
2021/09/08 14:55:05;;;;;;;5.60;5.10;;;30.60;50.80;;;;;;5017567;28;20456;-65
2021/09/08 14:57:32;;;;;;;5.37;4.97;;;30.50;50.40;;;;;;5016956;28;20967;-66
2021/09/08 15:00:00;;;;;;;5.97;5.40;;;30.50;51.60;;;;;;5017409;28;20543;-65
2021/09/08 15:02:26;;;;;;;5.27;4.87;;;30.60;52.20;;;;;;5016798;28;20476;-65
2021/09/08 15:04:53;;;;;;;4.90;4.40;;;30.60;50.00;;;;;;5017129;28;20457;-66
2021/09/08 15:07:20;;;;;;;6.30;5.80;;;30.60;52.70;;;;;;5017180;28;20452;-66
2021/09/08 15:09:47;;;;;;;5.77;5.13;;;30.60;53.80;;;;;;5016716;28;20531;-66
2021/09/08 15:12:13;;;;;;;5.40;5.00;;;30.70;54.50;;;;;;5016506;28;20872;-66
2021/09/08 15:14:41;;;;;;;5.83;5.00;;;30.70;55.00;;;;;;5016017;28;20453;-66
2021/09/08 15:17:09;;;;;;;6.47;4.90;;;30.70;55.40;;;;;;5016933;28;20448;-66
2021/09/08 15:19:37;;;;;;;5.67;5.17;;;30.80;52.80;;;;;;5017239;28;20452;-66
2021/09/08 15:22:05;;;;;;;5.30;4.90;;;30.70;52.70;;;;;;5017294;28;20465;-66
2021/09/08 15:24:31;;;;;;;6.73;5.00;;;30.70;51.50;;;;;;5016999;28;20814;-66
2021/09/08 15:26:58;;;;;;;5.20;4.70;;;30.70;51.50;;;;;;5017039;28;20455;-66
2021/09/08 15:29:25;;;;;;;4.87;4.57;;;30.30;51.40;;;;;;5017004;28;20859;-66
2021/09/08 15:31:52;;;;;;;5.43;5.03;;;30.30;52.00;;;;;;5016362;28;20476;-67
2021/09/08 15:34:20;;;;;;;6.70;6.17;;;30.20;53.40;;;;;;5016123;28;20955;-67
2021/09/08 15:36:46;;;;;;;5.47;5.07;;;30.20;54.20;;;;;;5016523;28;20453;-67
2021/09/08 15:39:13;;;;;;;5.93;5.43;;;30.10;55.20;;;;;;5016951;28;20460;-65
2021/09/08 15:41:40;;;;;;;4.70;4.40;;;30.00;55.40;;;;;;5016908;28;20472;-64
2021/09/08 15:44:07;;;;;;;5.70;5.20;;;29.90;55.70;;;;;;5016790;28;20460;-65
2021/09/08 15:46:33;;;;;;;5.20;4.90;;;29.80;55.00;;;;;;5016801;28;20460;-66
2021/09/08 15:49:00;;;;;;;6.23;5.57;;;29.70;56.00;;;;;;5016491;28;20453;-65
2021/09/08 15:51:28;;;;;;;5.63;5.13;;;29.70;53.70;;;;;;5015984;28;20480;-66
2021/09/08 15:53:55;;;;;;;5.67;5.27;;;29.60;54.70;;;;;;5015879;28;20881;-66
2021/09/08 15:56:22;;;;;;;5.10;4.80;;;29.50;56.00;;;;;;5015637;28;20865;-66
2021/09/08 15:58:49;;;;;;;6.30;5.80;;;29.50;55.20;;;;;;5016012;28;20460;-66
2021/09/08 16:01:15;;;;;;;6.27;5.77;;;29.30;56.50;;;;;;5015078;28;20485;-66
2021/09/08 16:03:42;;;;;;;5.40;5.03;;;29.30;56.90;;;;;;5016272;28;20453;-66
2021/09/08 16:06:09;;;;;;;6.37;5.97;;;29.20;57.30;;;;;;5018635;28;20457;-66
2021/09/08 16:08:38;;;;;;;6.90;6.30;;;29.00;56.10;;;;;;5018200;28;20487;-66
2021/09/08 16:11:05;;;;;;;6.63;6.03;;;28.80;57.10;;;;;;5018776;28;20477;-66
2021/09/08 16:13:33;;;;;;;5.97;5.57;;;28.70;57.30;;;;;;5017944;28;21039;-67
2021/09/08 16:16:04;;;;;;;6.00;5.57;;;28.60;57.50;;;;;;5018657;28;20994;-67
2021/09/08 16:18:32;;;;;;;6.33;5.50;;;28.60;59.20;;;;;;5019964;28;20468;-67
2021/09/08 16:20:58;;;;;;;6.27;5.70;;;28.50;58.80;;;;;;5018543;28;20477;-66
2021/09/08 16:23:26;;;;;;;5.70;5.30;;;28.40;58.50;;;;;;5018295;28;20461;-66
2021/09/08 16:25:56;;;;;;;6.50;5.90;;;28.20;58.80;;;;;;5015169;28;20460;-66
2021/09/08 16:28:22;;;;;;;6.80;5.60;;;28.20;60.90;;;;;;5015772;28;20487;-66
2021/09/08 16:30:49;;;;;;;6.17;5.70;;;28.10;60.70;;;;;;5015275;28;20844;-66
2021/09/08 16:33:17;;;;;;;6.57;6.07;;;28.00;60.90;;;;;;5015009;28;20999;-66
2021/09/08 16:35:44;;;;;;;6.17;5.67;;;27.90;62.00;;;;;;5014785;28;20492;-66
2021/09/08 16:38:11;;;;;;;6.97;6.30;;;27.80;62.20;;;;;;5014908;28;20506;-66
2021/09/08 16:40:38;;;;;;;6.50;5.97;;;27.60;62.20;;;;;;5014837;28;20834;-66
2021/09/08 16:43:06;;;;;;;6.67;6.17;;;27.70;62.10;;;;;;5015076;28;20456;-66